Time;durP1;ratioP1;P1;durP2;ratioP2;P2;SDS_P1;SDS_P2;PMS_P1;PMS_P2;Temp;Humidity;BMP_temperature;BMP_pressure;BME280_temperature;BME280_humidity;BME280_pressure;Samples;Min_cycle;Max_cycle;Signal;HPM_P1;HPM_P2
2023/02/14 00:01:28;;;;;;;2.30;0.70;;;;;;;;;;105026;1260;60408;-54
2023/02/14 00:03:59;;;;;;;1.00;0.60;;;;;;;;;;109250;1251;61029;-54
2023/02/14 00:06:27;;;;;;;0.70;0.50;;;;;;;;;;109284;1251;58419;-55
2023/02/14 00:08:55;;;;;;;1.10;0.50;;;;;;;;;;109339;1251;58297;-55
2023/02/14 00:11:23;;;;;;;1.10;0.60;;;;;;;;;;109309;1251;62295;-54
2023/02/14 00:16:37;;;;;;;2.70;0.70;;;;;;;;;;109266;1251;60806;-55
2023/02/14 00:19:05;;;;;;;2.60;0.60;;;;;;;;;;109373;1251;58511;-52
2023/02/14 00:21:34;;;;;;;3.90;0.70;;;;;;;;;;109288;1251;58561;-52
2023/02/14 00:24:03;;;;;;;2.30;0.80;;;;;;;;;;109357;1251;62027;-53
2023/02/14 00:26:31;;;;;;;1.10;0.70;;;;;;;;;;105932;1251;60441;-54
2023/02/14 00:29:02;;;;;;;0.60;0.60;;;;;;;;;;105303;1256;60818;-55
2023/02/14 00:31:30;;;;;;;1.70;0.50;;;;;;;;;;105226;1257;60558;-51
2023/02/14 00:33:58;;;;;;;3.20;0.60;;;;;;;;;;105652;1251;60426;-52
2023/02/14 00:36:27;;;;;;;0.80;0.60;;;;;;;;;;105235;1257;62221;-51
2023/02/14 00:38:55;;;;;;;1.90;0.60;;;;;;;;;;107886;1256;59644;-53
2023/02/14 00:41:23;;;;;;;2.10;0.60;;;;;;;;;;106156;1254;60667;-50
2023/02/14 00:43:52;;;;;;;1.30;0.60;;;;;;;;;;106067;1251;60405;-54
2023/02/14 00:46:20;;;;;;;0.90;0.50;;;;;;;;;;106213;1256;60328;-54
2023/02/14 00:48:48;;;;;;;1.50;0.60;;;;;;;;;;105445;1251;62398;-53
2023/02/14 00:51:17;;;;;;;1.20;0.70;;;;;;;;;;105694;1251;60373;-52
2023/02/14 00:53:45;;;;;;;3.40;0.70;;;;;;;;;;105436;1251;60744;-54
2023/02/14 00:56:13;;;;;;;0.90;0.50;;;;;;;;;;105721;1251;60469;-54
2023/02/14 00:58:42;;;;;;;1.90;0.80;;;;;;;;;;105411;1255;60662;-52
2023/02/14 01:01:11;;;;;;;0.90;0.60;;;;;;;;;;105389;1251;62352;-53
2023/02/14 01:03:39;;;;;;;1.10;0.60;;;;;;;;;;105732;1258;60470;-54
2023/02/14 01:06:07;;;;;;;1.20;0.60;;;;;;;;;;105500;1256;60434;-54
2023/02/14 01:08:35;;;;;;;2.80;0.80;;;;;;;;;;105508;1251;60530;-52
2023/02/14 01:11:17;;;;;;;1.70;0.50;;;;;;;;;;105414;1251;60431;-52
2023/02/14 01:13:46;;;;;;;1.30;0.70;;;;;;;;;;106347;1251;62252;-53
2023/02/14 01:16:15;;;;;;;0.90;0.60;;;;;;;;;;105307;1254;60628;-52
2023/02/14 01:18:43;;;;;;;2.00;0.40;;;;;;;;;;106218;1257;61148;-54
2023/02/14 01:21:30;;;;;;;2.10;0.80;;;;;;;;;;105716;1257;61217;-54
2023/02/14 01:23:59;;;;;;;1.50;0.80;;;;;;;;;;105466;1251;60257;-54
2023/02/14 01:26:28;;;;;;;2.60;0.80;;;;;;;;;;105238;1251;62330;-54
2023/02/14 01:28:55;;;;;;;1.00;0.70;;;;;;;;;;106025;1251;60398;-52
2023/02/14 01:31:25;;;;;;;0.70;0.50;;;;;;;;;;105418;1251;60822;-53
2023/02/14 01:33:55;;;;;;;1.90;0.70;;;;;;;;;;105461;1256;60533;-54
2023/02/14 01:36:23;;;;;;;2.10;0.60;;;;;;;;;;106300;1256;59814;-53
2023/02/14 01:38:52;;;;;;;1.60;0.60;;;;;;;;;;105479;1256;61894;-54
2023/02/14 01:41:20;;;;;;;0.80;0.60;;;;;;;;;;105966;1256;60421;-54
2023/02/14 01:44:08;;;;;;;1.20;0.60;;;;;;;;;;106673;1251;60889;-54
2023/02/14 01:46:36;;;;;;;1.20;0.60;;;;;;;;;;105064;1257;60475;-56
2023/02/14 01:49:07;;;;;;;2.30;0.60;;;;;;;;;;106007;1255;60313;-53
2023/02/14 01:51:35;;;;;;;0.90;0.60;;;;;;;;;;105329;1257;62154;-54
2023/02/14 01:54:04;;;;;;;3.10;0.80;;;;;;;;;;105535;1254;60425;-54
2023/02/14 01:56:34;;;;;;;1.80;0.70;;;;;;;;;;106381;1251;60937;-52
2023/02/14 01:59:02;;;;;;;1.00;0.60;;;;;;;;;;106873;1254;60598;-52
2023/02/14 02:01:30;;;;;;;1.00;0.60;;;;;;;;;;105729;1251;60483;-52
2023/02/14 02:04:02;;;;;;;1.70;0.70;;;;;;;;;;106022;1257;62199;-53
2023/02/14 02:06:32;;;;;;;1.20;0.60;;;;;;;;;;105278;1256;60558;-54
2023/02/14 02:09:19;;;;;;;1.00;0.60;;;;;;;;;;105232;1250;60530;-53
2023/02/14 02:11:47;;;;;;;2.30;0.70;;;;;;;;;;105545;1256;60456;-52
2023/02/14 02:14:21;;;;;;;1.30;0.60;;;;;;;;;;106130;1251;60412;-51
2023/02/14 02:16:49;;;;;;;1.60;0.60;;;;;;;;;;105480;1251;62629;-54
2023/02/14 02:19:20;;;;;;;2.10;0.70;;;;;;;;;;105486;1251;60458;-51
2023/02/14 02:22:00;;;;;;;1.30;0.60;;;;;;;;;;105348;1251;60358;-53
2023/02/14 02:24:28;;;;;;;1.10;0.70;;;;;;;;;;105496;1256;60407;-53
2023/02/14 02:27:01;;;;;;;2.30;0.70;;;;;;;;;;105164;1251;60508;-53
2023/02/14 02:29:56;;;;;;;1.00;0.60;;;;;;;;;;105258;1257;62227;-51
2023/02/14 02:32:31;;;;;;;2.20;0.80;;;;;;;;;;106020;1256;60408;-50
2023/02/14 02:35:04;;;;;;;1.80;0.60;;;;;;;;;;107583;1251;60446;-49
2023/02/14 02:37:38;;;;;;;1.70;0.70;;;;;;;;;;105879;1251;60427;-53
2023/02/14 02:40:21;;;;;;;0.80;0.60;;;;;;;;;;105308;1251;60328;-51
2023/02/14 02:43:08;;;;;;;3.70;0.70;;;;;;;;;;105281;1251;60750;-52
2023/02/14 02:48:39;;;;;;;0.90;0.60;;;;;;;;;;106258;1256;60647;-52
2023/02/14 02:54:08;;;;;;;0.90;0.60;;;;;;;;;;105354;1251;60466;-52
2023/02/14 02:56:48;;;;;;;1.80;0.90;;;;;;;;;;105140;1251;61868;-53
2023/02/14 02:59:20;;;;;;;3.20;0.70;;;;;;;;;;106594;1251;60424;-55
2023/02/14 03:02:12;;;;;;;2.60;0.60;;;;;;;;;;105594;1257;61085;-54
2023/02/14 03:04:54;;;;;;;1.10;0.70;;;;;;;;;;105178;1253;60718;-52
2023/02/14 03:07:35;;;;;;;1.60;0.60;;;;;;;;;;105958;1251;60402;-55
2023/02/14 03:10:14;;;;;;;2.70;0.70;;;;;;;;;;105574;1251;60869;-53
2023/02/14 03:12:58;;;;;;;2.10;0.50;;;;;;;;;;105381;1251;60536;-52
2023/02/14 03:15:26;;;;;;;2.10;0.60;;;;;;;;;;105401;1251;60412;-53
2023/02/14 03:18:03;;;;;;;1.20;0.60;;;;;;;;;;105906;1251;60548;-54
2023/02/14 03:20:45;;;;;;;1.20;0.60;;;;;;;;;;105374;1251;60405;-51
2023/02/14 03:23:34;;;;;;;0.90;0.60;;;;;;;;;;105151;1251;62339;-53
2023/02/14 03:26:04;;;;;;;1.80;0.50;;;;;;;;;;106552;1251;60431;-53
2023/02/14 03:28:38;;;;;;;1.40;0.60;;;;;;;;;;105631;1251;61118;-49
2023/02/14 03:31:12;;;;;;;1.40;0.50;;;;;;;;;;105294;1257;60479;-55
2023/02/14 03:36:41;;;;;;;1.40;0.60;;;;;;;3.36;100.00;99969.86;102003;1295;602909;-53
2023/02/14 03:39:14;;;;;;;2.20;0.60;;;;;;;3.33;100.00;99969.88;104827;1267;59203;-51
2023/02/14 03:41:47;;;;;;;2.80;0.60;;;;;;;3.29;100.00;99968.20;104417;1270;59323;-54
2023/02/14 03:44:18;;;;;;;3.00;0.70;;;;;;;3.23;100.00;99962.26;104171;1273;73247;-53
2023/02/14 03:47:08;;;;;;;1.30;0.60;;;;;;;3.19;100.00;99961.96;107614;1272;68755;-55
2023/02/14 03:49:39;;;;;;;2.00;0.50;;;;;;;3.14;100.00;99964.17;104438;1269;174990;-54
2023/02/14 03:52:07;;;;;;;2.00;0.40;;;;;;;3.09;100.00;99964.77;104611;1269;61387;-52
2023/02/14 03:54:35;;;;;;;0.80;0.50;;;;;;;3.05;100.00;99955.08;104336;1269;59717;-55
2023/02/14 03:57:28;;;;;;;1.60;0.50;;;;;;;3.02;100.00;99956.89;104531;1267;73194;-55
2023/02/14 03:59:56;;;;;;;1.40;0.60;;;;;;;3.00;100.00;99963.66;105301;1269;67973;-53
2023/02/14 04:02:33;;;;;;;1.60;0.60;;;;;;;2.98;100.00;99957.82;104477;1269;71672;-53
2023/02/14 04:05:03;;;;;;;0.90;0.50;;;;;;;2.95;100.00;99957.89;104959;1267;60670;-54
2023/02/14 04:07:31;;;;;;;0.90;0.50;;;;;;;2.92;100.00;99961.27;104238;1270;61225;-56
2023/02/14 04:09:58;;;;;;;1.70;0.40;;;;;;;2.90;100.00;99967.15;104417;1269;74253;-54
2023/02/14 04:12:28;;;;;;;1.40;0.40;;;;;;;2.90;100.00;99961.66;104068;1270;67124;-54
2023/02/14 04:15:05;;;;;;;0.80;0.40;;;;;;;2.89;100.00;99962.40;107131;1267;72219;-53
2023/02/14 04:20:22;;;;;;;1.20;0.40;;;;;;;2.86;100.00;99954.99;104270;1269;60538;-56
2023/02/14 04:22:50;;;;;;;1.00;0.60;;;;;;;2.84;100.00;99942.96;108422;1267;73734;-54
2023/02/14 04:25:19;;;;;;;0.90;0.40;;;;;;;2.81;100.00;99935.55;105766;1269;66562;-55
2023/02/14 04:27:47;;;;;;;0.80;0.50;;;;;;;2.81;100.00;99933.80;104436;1267;71652;-55
2023/02/14 04:30:16;;;;;;;0.70;0.40;;;;;;;2.80;100.00;99935.77;104666;1267;62968;-54
2023/02/14 04:32:45;;;;;;;1.00;0.40;;;;;;;-49.52;59.60;59959.54;104376;1265;1002521;-54
2023/02/14 04:35:13;;;;;;;0.70;0.30;;;;;;;-128.00;-1.00;-1.00;102064;1269;1012652;-54
2023/02/14 04:37:41;;;;;;;2.00;0.40;;;;;;;-128.00;-1.00;-1.00;101856;1269;1002441;-53
2023/02/14 04:40:10;;;;;;;0.80;0.40;;;;;;;-128.00;-1.00;-1.00;101699;1269;1002980;-54
2023/02/14 04:42:38;;;;;;;0.60;0.40;;;;;;;-128.00;-1.00;-1.00;102347;1270;1010538;-55
2023/02/14 04:45:06;;;;;;;1.50;0.50;;;;;;;-128.00;-1.00;-1.00;102185;1266;1011923;-53
2023/02/14 04:47:35;;;;;;;0.50;0.30;;;;;;;-128.00;-1.00;-1.00;102387;1266;1013293;-53
2023/02/14 04:50:05;;;;;;;2.30;0.40;;;;;;;-128.00;-1.00;-1.00;102139;1266;1013109;-52
2023/02/14 04:52:33;;;;;;;2.40;0.40;;;;;;;-128.00;-1.00;-1.00;102476;1262;1012455;-54
2023/02/14 04:55:01;;;;;;;1.70;0.60;;;;;;;-128.00;-1.00;-1.00;103513;1264;1002788;-55
2023/02/14 04:57:29;;;;;;;0.90;0.30;;;;;;;-128.00;-1.00;-1.00;102126;1267;1011031;-54
2023/02/14 04:59:58;;;;;;;1.10;0.40;;;;;;;-128.00;-1.00;-1.00;102267;1266;1012627;-54
2023/02/14 05:02:26;;;;;;;0.60;0.40;;;;;;;-128.00;-1.00;-1.00;103188;1264;1002316;-54
2023/02/14 05:04:54;;;;;;;1.80;0.50;;;;;;;-128.00;-1.00;-1.00;102011;1264;1012454;-51
2023/02/14 05:07:22;;;;;;;0.80;0.40;;;;;;;-128.00;-1.00;-1.00;101932;1264;1010260;-51
2023/02/14 05:09:50;;;;;;;0.60;0.40;;;;;;;-128.00;-1.00;-1.00;102592;1266;1011357;-54
2023/02/14 05:12:18;;;;;;;0.80;0.30;;;;;;;-128.00;-1.00;-1.00;103668;1264;1002724;-54
2023/02/14 05:14:46;;;;;;;1.20;0.40;;;;;;;-128.00;-1.00;-1.00;101919;1267;1002687;-55
2023/02/14 05:17:15;;;;;;;0.70;0.50;;;;;;;-128.00;-1.00;-1.00;103123;1266;1014416;-55
2023/02/14 05:19:43;;;;;;;0.60;0.30;;;;;;;-128.00;-1.00;-1.00;101766;1263;1002359;-56
2023/02/14 05:22:11;;;;;;;0.70;0.50;;;;;;;-128.00;-1.00;-1.00;102474;1264;1002599;-54
2023/02/14 05:24:39;;;;;;;0.90;0.30;;;;;;;-128.00;-1.00;-1.00;102402;1264;1012758;-52
2023/02/14 05:27:10;;;;;;;1.00;0.40;;;;;;;-128.00;-1.00;-1.00;102005;1264;1012692;-54
2023/02/14 05:29:40;;;;;;;0.50;0.30;;;;;;;-128.00;-1.00;-1.00;101995;1264;1013815;-54
2023/02/14 05:32:12;;;;;;;1.00;0.20;;;;;;;-128.00;-1.00;-1.00;101969;1266;1010091;-53
2023/02/14 05:34:40;;;;;;;1.30;0.30;;;;;;;-128.00;-1.00;-1.00;101950;1267;1011477;-56
2023/02/14 05:37:08;;;;;;;1.00;0.20;;;;;;;-128.00;-1.00;-1.00;101894;1266;1003098;-54
2023/02/14 05:39:37;;;;;;;2.00;0.40;;;;;;;-128.00;-1.00;-1.00;102090;1266;1013139;-53
2023/02/14 05:42:05;;;;;;;1.00;0.40;;;;;;;-128.00;-1.00;-1.00;104916;1262;1002582;-53
2023/02/14 05:44:33;;;;;;;2.60;0.40;;;;;;;-128.00;-1.00;-1.00;101822;1266;1002490;-52
2023/02/14 05:47:01;;;;;;;3.30;0.40;;;;;;;-128.00;-1.00;-1.00;102802;1265;1010970;-54
2023/02/14 05:49:29;;;;;;;1.10;0.30;;;;;;;-128.00;-1.00;-1.00;102987;1261;1012846;-53
2023/02/14 05:52:00;;;;;;;0.60;0.30;;;;;;;-128.00;-1.00;-1.00;102168;1266;1013563;-54
2023/02/14 05:54:28;;;;;;;0.90;0.40;;;;;;;-128.00;-1.00;-1.00;102722;1266;1003170;-55
2023/02/14 05:56:56;;;;;;;1.60;0.30;;;;;;;-128.00;-1.00;-1.00;102315;1265;1003704;-54
2023/02/14 05:59:24;;;;;;;0.80;0.40;;;;;;;-128.00;-1.00;-1.00;103152;1266;1003311;-54
2023/02/14 06:01:52;;;;;;;0.80;0.40;;;;;;;-128.00;-1.00;-1.00;102030;1266;1002851;-53
2023/02/14 06:04:20;;;;;;;0.80;0.30;;;;;;;-128.00;-1.00;-1.00;102008;1266;1012955;-51
2023/02/14 06:06:49;;;;;;;1.80;0.40;;;;;;;-128.00;-1.00;-1.00;102337;1263;1002540;-53
2023/02/14 06:09:18;;;;;;;1.80;0.40;;;;;;;-128.00;-1.00;-1.00;102212;1266;1002957;-54
2023/02/14 06:11:46;;;;;;;1.20;0.40;;;;;;;-128.00;-1.00;-1.00;102263;1266;1011300;-54
2023/02/14 06:14:14;;;;;;;1.00;0.50;;;;;;;-128.00;-1.00;-1.00;102041;1267;1002871;-51
2023/02/14 06:16:42;;;;;;;0.70;0.40;;;;;;;-128.00;-1.00;-1.00;101993;1263;1002582;-51
2023/02/14 06:19:12;;;;;;;1.40;0.60;;;;;;;-128.00;-1.00;-1.00;102113;1266;1013691;-53
2023/02/14 06:21:40;;;;;;;2.20;0.30;;;;;;;-128.00;-1.00;-1.00;102014;1263;1010482;-53
2023/02/14 06:24:08;;;;;;;4.10;0.40;;;;;;;-128.00;-1.00;-1.00;102041;1266;1004191;-52
2023/02/14 06:26:37;;;;;;;0.80;0.30;;;;;;;-128.00;-1.00;-1.00;102036;1261;1013266;-52
2023/02/14 06:29:05;;;;;;;1.60;0.40;;;;;;;-128.00;-1.00;-1.00;102521;1262;1005338;-53
2023/02/14 06:31:33;;;;;;;1.10;0.30;;;;;;;-128.00;-1.00;-1.00;101849;1264;1002376;-54
2023/02/14 06:34:01;;;;;;;1.00;0.40;;;;;;;-128.00;-1.00;-1.00;102289;1263;1009928;-52
2023/02/14 06:36:30;;;;;;;0.80;0.30;;;;;;;-128.00;-1.00;-1.00;102010;1266;1011548;-53
2023/02/14 06:38:58;;;;;;;1.90;0.50;;;;;;;-128.00;-1.00;-1.00;101925;1266;1013153;-54
2023/02/14 06:41:27;;;;;;;0.50;0.30;;;;;;;-128.00;-1.00;-1.00;102541;1266;1012798;-55
2023/02/14 06:43:55;;;;;;;0.50;0.30;;;;;;;-128.00;-1.00;-1.00;101813;1261;1002692;-53
2023/02/14 06:46:23;;;;;;;0.70;0.30;;;;;;;-128.00;-1.00;-1.00;101991;1266;1003529;-53
2023/02/14 06:48:51;;;;;;;1.00;0.40;;;;;;;-128.00;-1.00;-1.00;101833;1266;1011450;-55
2023/02/14 06:51:20;;;;;;;2.30;0.60;;;;;;;-128.00;-1.00;-1.00;101810;1263;1013016;-54
2023/02/14 06:53:48;;;;;;;1.10;0.30;;;;;;;-128.00;-1.00;-1.00;101728;1266;1004958;-54
2023/02/14 06:56:16;;;;;;;0.80;0.40;;;;;;;-128.00;-1.00;-1.00;105886;1261;1002816;-56
2023/02/14 06:58:44;;;;;;;1.30;0.30;;;;;;;-128.00;-1.00;-1.00;104386;1263;1002777;-54
2023/02/14 07:01:12;;;;;;;0.90;0.40;;;;;;;-128.00;-1.00;-1.00;102084;1265;1011304;-54
2023/02/14 07:03:40;;;;;;;0.80;0.40;;;;;;;-128.00;-1.00;-1.00;101898;1262;1003559;-54
2023/02/14 07:06:09;;;;;;;0.90;0.40;;;;;;;-128.00;-1.00;-1.00;101785;1263;1012903;-55
2023/02/14 07:08:37;;;;;;;1.00;0.30;;;;;;;-128.00;-1.00;-1.00;102973;1263;1013089;-54
2023/02/14 07:11:05;;;;;;;0.60;0.30;;;;;;;-128.00;-1.00;-1.00;103166;1260;1002774;-55
2023/02/14 07:13:33;;;;;;;2.30;0.40;;;;;;;-128.00;-1.00;-1.00;101966;1256;1004978;-53
2023/02/14 07:16:02;;;;;;;1.40;0.50;;;;;;;-128.00;-1.00;-1.00;101855;1261;1013242;-54
2023/02/14 07:18:30;;;;;;;1.00;0.40;;;;;;;-128.00;-1.00;-1.00;101881;1257;1011901;-54
2023/02/14 07:21:00;;;;;;;0.90;0.50;;;;;;;-128.00;-1.00;-1.00;101987;1257;1015933;-54
2023/02/14 07:23:28;;;;;;;1.70;0.40;;;;;;;-128.00;-1.00;-1.00;103210;1260;1010646;-54
2023/02/14 07:25:56;;;;;;;1.70;0.40;;;;;;;-128.00;-1.00;-1.00;102372;1257;1001816;-55
2023/02/14 07:28:24;;;;;;;1.20;0.30;;;;;;;-128.00;-1.00;-1.00;102571;1257;1012811;-54
2023/02/14 07:30:52;;;;;;;1.10;0.40;;;;;;;-128.00;-1.00;-1.00;102056;1260;1004923;-54
2023/02/14 07:33:20;;;;;;;0.90;0.30;;;;;;;-128.00;-1.00;-1.00;106058;1256;1013346;-56
2023/02/14 07:35:48;;;;;;;0.50;0.30;;;;;;;-128.00;-1.00;-1.00;106061;1257;1002476;-52
2023/02/14 07:38:16;;;;;;;0.90;0.40;;;;;;;-128.00;-1.00;-1.00;104979;1257;1002214;-54
2023/02/14 07:40:44;;;;;;;1.90;0.40;;;;;;;-128.00;-1.00;-1.00;105581;1257;1002261;-53
2023/02/14 07:43:12;;;;;;;3.10;0.40;;;;;;;-128.00;-1.00;-1.00;102060;1257;1002328;-53
2023/02/14 07:45:40;;;;;;;1.80;0.30;;;;;;;-128.00;-1.00;-1.00;103076;1257;1002579;-53
2023/02/14 07:48:08;;;;;;;1.40;0.30;;;;;;;-128.00;-1.00;-1.00;102378;1257;1011047;-53
2023/02/14 07:50:37;;;;;;;0.60;0.20;;;;;;;-128.00;-1.00;-1.00;101883;1262;1011068;-52
2023/02/14 07:53:07;;;;;;;1.30;0.30;;;;;;;-128.00;-1.00;-1.00;101872;1257;1003375;-52
2023/02/14 07:55:38;;;;;;;2.50;0.40;;;;;;;-128.00;-1.00;-1.00;102083;1257;1012549;-52
2023/02/14 07:58:06;;;;;;;0.60;0.30;;;;;;;-128.00;-1.00;-1.00;102710;1257;1014533;-50
2023/02/14 08:00:34;;;;;;;3.00;0.30;;;;;;;-128.00;-1.00;-1.00;104531;1260;1010126;-54
2023/02/14 08:03:04;;;;;;;2.20;0.30;;;;;;;-128.00;-1.00;-1.00;102162;1259;1011992;-52
2023/02/14 08:05:34;;;;;;;1.50;0.30;;;;;;;-128.00;-1.00;-1.00;102363;1260;1012757;-53
2023/02/14 08:08:02;;;;;;;0.60;0.30;;;;;;;-128.00;-1.00;-1.00;102492;1260;1012758;-52
2023/02/14 08:10:31;;;;;;;0.50;0.20;;;;;;;-128.00;-1.00;-1.00;102423;1257;1016939;-54
2023/02/14 08:12:59;;;;;;;1.80;0.30;;;;;;;-128.00;-1.00;-1.00;102421;1260;1003037;-51
2023/02/14 08:18:21;;;;;;;5.20;0.30;;;;;;;-128.00;-1.00;-1.00;102337;1257;1013709;-53
2023/02/14 08:20:50;;;;;;;0.50;0.20;;;;;;;-128.00;-1.00;-1.00;103139;1257;1012140;-53
2023/02/14 08:23:19;;;;;;;1.10;0.20;;;;;;;-128.00;-1.00;-1.00;102980;1259;1013306;-54
2023/02/14 08:25:47;;;;;;;0.50;0.20;;;;;;;-128.00;-1.00;-1.00;102409;1259;1010568;-54
2023/02/14 08:28:15;;;;;;;1.00;0.20;;;;;;;-128.00;-1.00;-1.00;102397;1257;1011187;-54
2023/02/14 08:30:44;;;;;;;1.30;0.20;;;;;;;-128.00;-1.00;-1.00;102473;1259;1013458;-54
2023/02/14 08:33:12;;;;;;;2.10;0.50;;;;;;;-128.00;-1.00;-1.00;102560;1259;1002826;-52
2023/02/14 08:35:40;;;;;;;1.20;0.30;;;;;;;-128.00;-1.00;-1.00;102397;1257;1002622;-55
2023/02/14 08:38:08;;;;;;;2.70;0.30;;;;;;;-128.00;-1.00;-1.00;102421;1256;1002904;-53
2023/02/14 08:40:36;;;;;;;0.90;0.30;;;;;;;-128.00;-1.00;-1.00;102463;1257;1010788;-55
2023/02/14 08:43:05;;;;;;;1.40;0.20;;;;;;;-128.00;-1.00;-1.00;102574;1259;1002519;-52
2023/02/14 08:45:33;;;;;;;0.80;0.40;;;;;;;-128.00;-1.00;-1.00;102409;1259;1012401;-54
2023/02/14 08:48:05;;;;;;;0.90;0.30;;;;;;;-128.00;-1.00;-1.00;102414;1261;1003462;-54
2023/02/14 08:50:35;;;;;;;1.10;0.30;;;;;;;-128.00;-1.00;-1.00;102427;1257;1010157;-54
2023/02/14 08:53:11;;;;;;;1.60;0.30;;;;;;;-128.00;-1.00;-1.00;103507;1256;1011202;-54
2023/02/14 08:55:39;;;;;;;1.20;0.20;;;;;;;-128.00;-1.00;-1.00;105370;1256;1012767;-54
2023/02/14 08:58:07;;;;;;;1.10;0.40;;;;;;;-128.00;-1.00;-1.00;103992;1257;1012655;-53
2023/02/14 09:00:35;;;;;;;1.30;0.30;;;;;;;-128.00;-1.00;-1.00;102434;1257;1012346;-54
2023/02/14 09:03:03;;;;;;;1.00;0.30;;;;;;;-128.00;-1.00;-1.00;102733;1259;1010847;-54
2023/02/14 09:05:33;;;;;;;1.50;0.40;;;;;;;-128.00;-1.00;-1.00;102051;1256;1010424;-53
2023/02/14 09:08:02;;;;;;;1.40;0.40;;;;;;;-128.00;-1.00;-1.00;103284;1256;1012807;-52
2023/02/14 09:10:34;;;;;;;1.90;0.30;;;;;;;-128.00;-1.00;-1.00;102338;1257;1014181;-53
2023/02/14 09:13:02;;;;;;;2.00;0.30;;;;;;;-128.00;-1.00;-1.00;102104;1257;1003195;-52
2023/02/14 09:15:30;;;;;;;1.00;0.70;;;;;;;-128.00;-1.00;-1.00;104605;1259;1011102;-53
2023/02/14 09:18:00;;;;;;;1.30;0.30;;;;;;;-128.00;-1.00;-1.00;102446;1259;1011438;-53
2023/02/14 09:20:28;;;;;;;1.70;0.30;;;;;;;-128.00;-1.00;-1.00;102327;1259;1013731;-53
2023/02/14 09:22:56;;;;;;;1.00;0.20;;;;;;;-128.00;-1.00;-1.00;102598;1256;1002236;-53
2023/02/14 09:25:28;;;;;;;0.60;0.30;;;;;;;-128.00;-1.00;-1.00;106198;1255;1013045;-54
2023/02/14 09:27:56;;;;;;;1.50;0.30;;;;;;;-128.00;-1.00;-1.00;104520;1259;1010393;-53
2023/02/14 09:30:24;;;;;;;1.60;0.40;;;;;;;-128.00;-1.00;-1.00;102196;1259;1002743;-53
2023/02/14 09:32:53;;;;;;;1.30;0.30;;;;;;;-128.00;-1.00;-1.00;102658;1259;1012127;-53
2023/02/14 09:38:09;;;;;;;1.40;0.40;;;;;;;-128.00;-1.00;-1.00;102187;1259;1012862;-54
2023/02/14 09:40:38;;;;;;;1.10;0.30;;;;;;;-128.00;-1.00;-1.00;106143;1257;1010464;-54
2023/02/14 09:43:15;;;;;;;4.10;0.30;;;;;;;-128.00;-1.00;-1.00;103237;1257;1003162;-55
2023/02/14 09:45:46;;;;;;;0.70;0.30;;;;;;;-128.00;-1.00;-1.00;103210;1257;1012739;-55
2023/02/14 09:48:30;;;;;;;1.20;0.30;;;;;;;-128.00;-1.00;-1.00;102300;1259;1013389;-55
2023/02/14 09:51:06;;;;;;;1.50;0.20;;;;;;;-128.00;-1.00;-1.00;102658;1257;1012992;-54
2023/02/14 09:53:39;;;;;;;0.80;0.20;;;;;;;-128.00;-1.00;-1.00;102327;1262;1010967;-55
2023/02/14 09:56:25;;;;;;;1.10;0.20;;;;;;;-128.00;-1.00;-1.00;102227;1257;1011091;-54
2023/02/14 09:59:04;;;;;;;0.50;0.20;;;;;;;-128.00;-1.00;-1.00;103790;1259;1013223;-53
2023/02/14 10:01:35;;;;;;;1.20;0.20;;;;;;;-128.00;-1.00;-1.00;105109;1256;1013673;-55
2023/02/14 10:04:39;;;;;;;1.30;0.20;;;;;;;-128.00;-1.00;-1.00;102418;1262;1013270;-55
2023/02/14 10:07:23;;;;;;;0.90;0.20;;;;;;;-128.00;-1.00;-1.00;102239;1256;1010484;-54
2023/02/14 10:10:00;;;;;;;0.80;0.10;;;;;;;-128.00;-1.00;-1.00;102665;1259;1011009;-55
2023/02/14 10:12:33;;;;;;;2.30;0.20;;;;;;;-128.00;-1.00;-1.00;102189;1259;1013288;-55
2023/02/14 10:15:04;;;;;;;1.30;0.20;;;;;;;-128.00;-1.00;-1.00;102227;1259;1012731;-56
2023/02/14 10:17:38;;;;;;;0.50;0.20;;;;;;;-128.00;-1.00;-1.00;102108;1257;1014294;-55
2023/02/14 10:20:29;;;;;;;1.00;0.20;;;;;;;-128.00;-1.00;-1.00;102659;1257;1010353;-54
2023/02/14 10:23:03;;;;;;;0.50;0.20;;;;;;;-128.00;-1.00;-1.00;103726;1256;1011743;-55
2023/02/14 10:25:38;;;;;;;1.30;0.30;;;;;;;-128.00;-1.00;-1.00;103079;1257;1013058;-56
2023/02/14 10:28:08;;;;;;;1.20;0.30;;;;;;;-128.00;-1.00;-1.00;103187;1256;1011666;-54
2023/02/14 10:30:38;;;;;;;1.20;0.20;;;;;;;-128.00;-1.00;-1.00;102670;1257;1013221;-54
2023/02/14 10:33:11;;;;;;;2.40;0.50;;;;;;;-128.00;-1.00;-1.00;103200;1257;1012738;-55
2023/02/14 10:35:51;;;;;;;2.30;0.30;;;;;;;-128.00;-1.00;-1.00;102116;1259;1011282;-55
2023/02/14 10:39:07;;;;;;;1.70;0.20;;;;;;;-128.00;-1.00;-1.00;102369;1258;1013257;-52
2023/02/14 10:41:59;;;;;;;2.20;0.20;;;;;;;-128.00;-1.00;-1.00;103260;1262;1013247;-52
2023/02/14 10:44:38;;;;;;;0.70;0.20;;;;;;;-128.00;-1.00;-1.00;102086;1259;1013604;-53
2023/02/14 10:47:57;;;;;;;1.90;0.20;;;;;;;-128.00;-1.00;-1.00;104755;1256;1010366;-54
2023/02/14 10:50:37;;;;;;;1.60;0.20;;;;;;;-128.00;-1.00;-1.00;103520;1259;1011724;-53
2023/02/14 10:53:15;;;;;;;0.30;0.20;;;;;;;-128.00;-1.00;-1.00;102399;1259;1013036;-53
2023/02/14 10:55:54;;;;;;;3.00;0.20;;;;;;;-128.00;-1.00;-1.00;102359;1259;1012028;-53
2023/02/14 10:58:22;;;;;;;0.80;0.20;;;;;;;-128.00;-1.00;-1.00;106070;1259;1012747;-55
2023/02/14 11:01:02;;;;;;;0.40;0.20;;;;;;;-128.00;-1.00;-1.00;103937;1263;1011005;-53
2023/02/14 11:03:31;;;;;;;1.00;0.30;;;;;;;-128.00;-1.00;-1.00;102446;1256;1010194;-54
2023/02/14 11:06:00;;;;;;;0.70;0.30;;;;;;;-128.00;-1.00;-1.00;103202;1264;1013251;-53
2023/02/14 11:08:33;;;;;;;0.80;0.20;;;;;;;-128.00;-1.00;-1.00;104405;1259;1002724;-54
2023/02/14 11:11:15;;;;;;;0.30;0.20;;;;;;;-128.00;-1.00;-1.00;102262;1259;1012779;-53
2023/02/14 11:13:43;;;;;;;1.40;0.20;;;;;;;-128.00;-1.00;-1.00;102495;1259;1011336;-52
2023/02/14 11:16:42;;;;;;;1.10;0.30;;;;;;;-128.00;-1.00;-1.00;102306;1257;1011502;-54
2023/02/14 11:19:14;;;;;;;1.00;0.20;;;;;;;-128.00;-1.00;-1.00;102368;1258;1012595;-50
2023/02/14 11:21:43;;;;;;;0.50;0.20;;;;;;;-128.00;-1.00;-1.00;102210;1257;1013161;-53
2023/02/14 11:24:30;;;;;;;0.50;0.20;;;;;;;-128.00;-1.00;-1.00;102422;1257;1012347;-51
2023/02/14 11:27:17;;;;;;;1.10;0.30;;;;;;;-128.00;-1.00;-1.00;102293;1254;1011852;-53
2023/02/14 11:29:47;;;;;;;2.20;0.20;;;;;;;-128.00;-1.00;-1.00;102428;1259;1010753;-53
2023/02/14 11:32:22;;;;;;;1.00;0.20;;;;;;;-128.00;-1.00;-1.00;102935;1254;1012732;-52
2023/02/14 11:35:07;;;;;;;2.10;0.20;;;;;;;-128.00;-1.00;-1.00;102629;1254;1012370;-47
2023/02/14 11:37:36;;;;;;;0.40;0.20;;;;;;;-128.00;-1.00;-1.00;102750;1257;1012891;-51
2023/02/14 11:40:05;;;;;;;1.70;0.20;;;;;;;-128.00;-1.00;-1.00;103211;1257;1010987;-52
2023/02/14 11:42:41;;;;;;;1.00;0.40;;;;;;;-128.00;-1.00;-1.00;102580;1254;1011218;-52
2023/02/14 11:45:27;;;;;;;2.80;0.20;;;;;;;-128.00;-1.00;-1.00;106286;1254;1012568;-53
2023/02/14 11:48:15;;;;;;;0.60;0.20;;;;;;;-128.00;-1.00;-1.00;103290;1257;1012746;-53
2023/02/14 11:51:03;;;;;;;0.60;0.20;;;;;;;-128.00;-1.00;-1.00;102991;1254;1012629;-53
2023/02/14 11:53:55;;;;;;;2.80;0.30;;;;;;;-128.00;-1.00;-1.00;103345;1254;1010338;-54
2023/02/14 11:56:23;;;;;;;3.20;0.40;;;;;;;-128.00;-1.00;-1.00;102374;1259;1011138;-54
2023/02/14 11:59:02;;;;;;;1.00;0.20;;;;;;;-128.00;-1.00;-1.00;102334;1257;1013812;-53
2023/02/14 12:01:32;;;;;;;0.80;0.40;;;;;;;-128.00;-1.00;-1.00;106267;1253;1012777;-54
2023/02/14 12:04:05;;;;;;;1.10;0.40;;;;;;;-128.00;-1.00;-1.00;104224;1254;1012775;-53
2023/02/14 12:06:34;;;;;;;1.10;0.20;;;;;;;-128.00;-1.00;-1.00;106411;1253;1009893;-51
2023/02/14 12:09:20;;;;;;;1.20;0.40;;;;;;;-128.00;-1.00;-1.00;104511;1254;1011600;-54
2023/02/14 12:11:59;;;;;;;1.30;0.30;;;;;;;-128.00;-1.00;-1.00;102532;1257;1013780;-53
2023/02/14 12:14:32;;;;;;;0.90;0.30;;;;;;;-128.00;-1.00;-1.00;102937;1254;1012217;-53
2023/02/14 12:17:06;;;;;;;2.20;0.20;;;;;;;-128.00;-1.00;-1.00;102323;1257;1013587;-53
2023/02/14 12:19:40;;;;;;;0.80;0.30;;;;;;;-128.00;-1.00;-1.00;102724;1252;1011517;-54
2023/02/14 12:22:10;;;;;;;1.00;0.20;;;;;;;-128.00;-1.00;-1.00;102161;1254;1011067;-53
2023/02/14 12:24:55;;;;;;;0.60;0.30;;;;;;;-128.00;-1.00;-1.00;104519;1253;1012847;-53
2023/02/14 12:27:29;;;;;;;1.40;0.30;;;;;;;-128.00;-1.00;-1.00;102340;1253;1012794;-51
2023/02/14 12:30:19;;;;;;;0.50;0.30;;;;;;;-128.00;-1.00;-1.00;106267;1254;1013398;-53
2023/02/14 12:32:49;;;;;;;0.60;0.20;;;;;;;-128.00;-1.00;-1.00;102750;1256;1009793;-52
2023/02/14 12:35:43;;;;;;;2.30;0.30;;;;;;;-128.00;-1.00;-1.00;104922;1256;1011837;-53
2023/02/14 12:38:24;;;;;;;0.70;0.30;;;;;;;-128.00;-1.00;-1.00;102429;1257;1013982;-54
2023/02/14 12:40:58;;;;;;;1.90;0.20;;;;;;;-128.00;-1.00;-1.00;102443;1257;1012841;-53
2023/02/14 12:43:54;;;;;;;1.00;0.30;;;;;;;-128.00;-1.00;-1.00;102536;1257;1012973;-53
2023/02/14 12:46:31;;;;;;;0.40;0.20;;;;;;;-128.00;-1.00;-1.00;102544;1257;1009694;-53